Time,TemperatureF,DewpointF,PressureIn,WindDirection,WindDirectionDegrees,WindSpeedMPH,WindSpeedGustMPH,Humidity,HourlyPrecipIn,Conditions,Clouds,dailyrainin,SolarRadiationWatts/m^2,SoftwareType,DateUTC
2013-02-22 00:07:00,30.4,26.0,29.98,East,101,0.0,4.0,85,0.00,,,0.20,0,weatherlink.com 1.10,2013-02-22 07:07:00,
2013-02-22 00:22:00,30.8,27.0,29.98,East,101,0.0,1.0,85,0.00,,,0.00,0,weatherlink.com 1.10,2013-02-22 07:22:00,
2013-02-22 00:37:00,30.1,26.0,29.98,East,101,0.0,1.0,85,0.00,,,0.00,0,weatherlink.com 1.10,2013-02-22 07:37:00,
2013-02-22 00:52:00,29.2,26.0,29.98,East,101,0.0,2.0,86,0.00,,,0.00,0,weatherlink.com 1.10,2013-02-22 07:52:00,
2013-02-22 01:07:00,28.9,26.0,29.98,East,101,0.0,1.0,88,0.00,,,0.00,0,weatherlink.com 1.10,2013-02-22 08:07:00,
2013-02-22 01:22:00,29.1,26.0,29.99,East,101,0.0,2.0,88,0.00,,,0.00,0,weatherlink.com 1.10,2013-02-22 08:22:00,
2013-02-22 01:37:00,29.5,26.0,29.99,East,101,2.0,3.0,87,0.00,,,0.00,0,weatherlink.com 1.10,2013-02-22 08:37:00,
2013-02-22 01:52:00,29.5,26.0,29.99,East,101,0.0,0.0,87,0.00,,,0.00,0,weatherlink.com 1.10,2013-02-22 08:52:00,
2013-02-22 02:07:00,28.9,26.0,29.99,East,101,0.0,2.0,87,0.00,,,0.00,0,weatherlink.com 1.10,2013-02-22 09:07:00,
2013-02-22 02:22:00,28.8,26.0,29.98,East,101,0.0,3.0,88,0.00,,,0.00,0,weatherlink.com 1.10,2013-02-22 09:22:00,
2013-02-22 02:37:00,29.0,26.0,29.98,East,99,0.0,1.0,89,0.00,,,0.00,0,weatherlink.com 1.10,2013-02-22 09:37:00,
2013-02-22 02:52:00,29.4,27.0,29.97,East,99,0.0,2.0,89,0.00,,,0.00,0,weatherlink.com 1.10,2013-02-22 09:52:00,
2013-02-22 03:07:00,29.4,27.0,29.97,East,99,0.0,0.0,89,0.00,,,0.00,0,weatherlink.com 1.10,2013-02-22 10:07:00,
2013-02-22 03:22:00,28.9,26.0,29.98,East,99,0.0,0.0,88,0.00,,,0.00,0,weatherlink.com 1.10,2013-02-22 10:22:00,
2013-02-22 03:37:00,28.3,26.0,29.98,East,99,0.0,1.0,89,0.00,,,0.00,0,weatherlink.com 1.10,2013-02-22 10:37:00,
2013-02-22 03:52:00,28.3,26.0,29.98,East,99,0.0,0.0,90,0.00,,,0.00,0,weatherlink.com 1.10,2013-02-22 10:52:00,
2013-02-22 04:07:00,28.2,26.0,29.98,East,99,0.0,1.0,90,0.00,,,0.00,0,weatherlink.com 1.10,2013-02-22 11:07:00,
2013-02-22 04:23:00,28.1,26.0,29.98,East,99,0.0,1.0,91,0.00,,,0.00,0,weatherlink.com 1.10,2013-02-22 11:23:00,
2013-02-22 04:38:00,28.0,26.0,29.99,East,99,0.0,1.0,91,0.00,,,0.00,0,weatherlink.com 1.10,2013-02-22 11:38:00,
2013-02-22 04:52:00,27.9,26.0,29.99,East,99,0.0,1.0,91,0.00,,,0.00,0,weatherlink.com 1.10,2013-02-22 11:52:00,
2013-02-22 05:08:00,27.6,25.0,30.00,East,99,0.0,1.0,91,0.00,,,0.00,0,weatherlink.com 1.10,2013-02-22 12:08:00,
2013-02-22 05:22:00,27.4,25.0,30.00,East,99,0.0,1.0,91,0.00,,,0.00,0,weatherlink.com 1.10,2013-02-22 12:22:00,
2013-02-22 05:38:00,27.1,25.0,30.01,East,99,0.0,1.0,92,0.00,,,0.00,0,weatherlink.com 1.10,2013-02-22 12:38:00,
2013-02-22 05:52:00,27.1,25.0,30.01,East,99,0.0,0.0,92,0.00,,,0.00,0,weatherlink.com 1.10,2013-02-22 12:52:00,
2013-02-22 06:07:00,27.2,25.0,30.01,East,99,1.0,1.0,92,0.00,,,0.00,0,weatherlink.com 1.10,2013-02-22 13:07:00,
2013-02-22 06:22:00,26.7,25.0,30.01,East,99,1.0,2.0,92,0.00,,,0.00,0,weatherlink.com 1.10,2013-02-22 13:22:00,
2013-02-22 06:38:00,26.9,25.0,30.01,East,100,0.0,4.0,93,0.00,,,0.00,0,weatherlink.com 1.10,2013-02-22 13:38:00,
2013-02-22 06:53:00,27.8,26.0,30.02,ESE,108,0.0,2.0,93,0.00,,,0.00,5,weatherlink.com 1.10,2013-02-22 13:53:00,
2013-02-22 07:08:00,27.7,26.0,30.03,ESE,108,1.0,1.0,93,0.00,,,0.00,12,weatherlink.com 1.10,2013-02-22 14:08:00,
2013-02-22 07:23:00,26.7,25.0,30.04,ESE,108,0.0,1.0,93,0.00,,,0.00,51,weatherlink.com 1.10,2013-02-22 14:23:00,
2013-02-22 07:38:00,28.9,27.0,30.04,ESE,106,0.0,3.0,94,0.00,,,0.00,100,weatherlink.com 1.10,2013-02-22 14:38:00,
2013-02-22 07:53:00,30.8,29.0,30.05,ESE,106,0.0,1.0,94,0.00,,,0.00,142,weatherlink.com 1.10,2013-02-22 14:53:00,
2013-02-22 08:08:00,32.5,31.0,30.07,ESE,106,0.0,0.0,94,0.00,,,0.00,199,weatherlink.com 1.10,2013-02-22 15:08:00,
2013-02-22 08:23:00,33.9,32.0,30.07,ESE,106,0.0,2.0,94,0.00,,,0.00,250,weatherlink.com 1.10,2013-02-22 15:23:00,
2013-02-22 08:38:00,35.1,33.0,30.07,ESE,107,0.0,3.0,92,0.00,,,0.00,301,weatherlink.com 1.10,2013-02-22 15:38:00,
2013-02-22 08:53:00,36.1,33.0,30.07,SE,134,2.0,3.0,88,0.00,,,0.00,355,weatherlink.com 1.10,2013-02-22 15:53:00,
2013-02-22 09:08:00,37.2,33.0,30.08,SSE,155,0.0,4.0,85,0.00,,,0.00,415,weatherlink.com 1.10,2013-02-22 16:08:00,
2013-02-22 09:25:00,38.6,33.0,30.08,SSW,212,0.0,4.0,81,0.00,,,0.00,494,weatherlink.com 1.10,2013-02-22 16:25:00,
2013-02-22 09:38:00,39.8,32.0,30.08,SW,224,0.0,4.0,74,0.00,,,0.00,541,weatherlink.com 1.10,2013-02-22 16:38:00,
2013-02-22 09:53:00,41.1,32.0,30.07,WSW,240,2.0,4.0,70,0.00,,,0.00,598,weatherlink.com 1.10,2013-02-22 16:53:00,
2013-02-22 10:08:00,41.6,30.0,30.07,WSW,246,1.0,5.0,64,0.00,,,0.00,137,weatherlink.com 1.10,2013-02-22 17:08:00,
2013-02-22 10:24:00,42.3,31.0,30.07,WSW,251,3.0,7.0,65,0.00,,,0.00,694,weatherlink.com 1.10,2013-02-22 17:24:00,
2013-02-22 10:39:00,42.0,30.0,30.06,WSW,252,0.0,3.0,63,0.00,,,0.00,128,weatherlink.com 1.10,2013-02-22 17:39:00,
2013-02-22 10:54:00,41.9,30.0,30.07,WSW,252,0.0,3.0,62,0.00,,,0.00,107,weatherlink.com 1.10,2013-02-22 17:54:00,
2013-02-22 11:09:00,43.0,31.0,30.07,WSW,250,2.0,3.0,62,0.00,,,0.00,796,weatherlink.com 1.10,2013-02-22 18:09:00,
2013-02-22 11:24:00,44.7,29.0,30.07,SSW,200,0.0,6.0,55,0.00,,,0.00,810,weatherlink.com 1.10,2013-02-22 18:24:00,
2013-02-22 11:39:00,45.4,29.0,30.07,SSE,162,1.0,4.0,54,0.00,,,0.00,835,weatherlink.com 1.10,2013-02-22 18:39:00,
2013-02-22 11:55:00,46.4,30.0,30.07,WSW,237,5.0,12.0,54,0.00,,,0.00,835,weatherlink.com 1.10,2013-02-22 18:55:00,
2013-02-22 12:09:00,45.9,28.0,30.06,ESE,103,1.0,7.0,50,0.00,,,0.00,830,weatherlink.com 1.10,2013-02-22 19:09:00,
2013-02-22 12:24:00,47.2,27.0,30.06,West,265,0.0,9.0,45,0.00,,,0.00,842,weatherlink.com 1.10,2013-02-22 19:24:00,
2013-02-22 12:39:00,47.7,28.0,30.05,West,259,3.0,10.0,47,0.00,,,0.00,840,weatherlink.com 1.10,2013-02-22 19:39:00,
2013-02-22 12:55:00,47.8,28.0,30.04,SW,234,7.0,7.0,47,0.00,,,0.00,877,weatherlink.com 1.10,2013-02-22 19:55:00,
2013-02-22 13:09:00,48.4,28.0,30.03,ESE,119,3.0,11.0,45,0.00,,,0.00,853,weatherlink.com 1.10,2013-02-22 20:09:00,
2013-02-22 13:24:00,48.4,26.0,30.01,SW,234,2.0,11.0,42,0.00,,,0.00,918,weatherlink.com 1.10,2013-02-22 20:24:00,
2013-02-22 13:39:00,49.8,28.0,30.01,WSW,243,7.0,12.0,43,0.00,,,0.00,891,weatherlink.com 1.10,2013-02-22 20:39:00,
2013-02-22 13:54:00,49.6,28.0,30.00,WSW,258,3.0,12.0,43,0.00,,,0.00,809,weatherlink.com 1.10,2013-02-22 20:54:00,
2013-02-22 14:09:00,49.6,28.0,30.00,SSW,192,1.0,9.0,44,0.00,,,0.00,921,weatherlink.com 1.10,2013-02-22 21:09:00,
2013-02-22 14:24:00,50.4,28.0,30.00,West,274,10.0,10.0,43,0.00,,,0.00,786,weatherlink.com 1.10,2013-02-22 21:24:00,
2013-02-22 14:39:00,51.1,29.0,30.00,WNW,290,6.0,10.0,42,0.00,,,0.00,788,weatherlink.com 1.10,2013-02-22 21:39:00,
2013-02-22 14:54:00,51.4,27.0,30.00,WNW,285,2.0,11.0,39,0.00,,,0.00,156,weatherlink.com 1.10,2013-02-22 21:54:00,
2013-02-22 15:10:00,51.2,28.0,29.98,West,272,9.0,10.0,41,0.00,,,0.00,619,weatherlink.com 1.10,2013-02-22 22:10:00,
2013-02-22 15:24:00,51.4,27.0,29.99,SW,221,6.0,9.0,39,0.00,,,0.00,571,weatherlink.com 1.10,2013-02-22 22:24:00,
2013-02-22 15:39:00,51.3,26.0,29.98,SSW,209,12.0,15.0,38,0.00,,,0.00,529,weatherlink.com 1.10,2013-02-22 22:39:00,
2013-02-22 15:57:00,53.0,27.0,29.99,West,277,3.0,9.0,37,0.00,,,0.00,512,weatherlink.com 1.10,2013-02-22 22:57:00,
2013-02-22 16:10:00,52.4,27.0,29.99,West,262,7.0,11.0,37,0.00,,,0.00,425,weatherlink.com 1.10,2013-02-22 23:10:00,
2013-02-22 16:24:00,52.4,25.0,29.98,WNW,285,8.0,15.0,34,0.00,,,0.00,378,weatherlink.com 1.10,2013-02-22 23:24:00,
2013-02-22 16:39:00,52.3,27.0,29.99,WNW,297,5.0,15.0,38,0.00,,,0.00,320,weatherlink.com 1.10,2013-02-22 23:39:00,
2013-02-22 16:54:00,51.4,30.0,29.99,NW,316,8.0,13.0,44,0.00,,,0.00,260,weatherlink.com 1.10,2013-02-22 23:54:00,
2013-02-22 17:09:00,49.8,30.0,30.00,NW,308,5.0,11.0,47,0.00,,,0.00,190,weatherlink.com 1.10,2013-02-23 00:09:00,
2013-02-22 17:25:00,48.9,30.0,30.00,NW,318,5.0,10.0,49,0.00,,,0.00,120,weatherlink.com 1.10,2013-02-23 00:25:00,
2013-02-22 17:39:00,48.0,30.0,30.00,NW,304,3.0,9.0,50,0.00,,,0.00,63,weatherlink.com 1.10,2013-02-23 00:39:00,
2013-02-22 17:55:00,47.3,30.0,30.00,WNW,297,4.0,9.0,52,0.00,,,0.00,23,weatherlink.com 1.10,2013-02-23 00:55:00,
2013-02-22 18:09:00,46.3,30.0,30.01,NW,324,4.0,9.0,53,0.00,,,0.00,7,weatherlink.com 1.10,2013-02-23 01:09:00,
2013-02-22 18:24:00,45.2,29.0,30.01,NW,304,5.0,9.0,54,0.00,,,0.00,0,weatherlink.com 1.10,2013-02-23 01:24:00,
2013-02-22 18:40:00,44.2,29.0,30.02,NW,309,1.0,8.0,56,0.00,,,0.00,0,weatherlink.com 1.10,2013-02-23 01:40:00,
2013-02-22 18:55:00,43.3,29.0,30.02,NNW,329,3.0,7.0,58,0.00,,,0.00,0,weatherlink.com 1.10,2013-02-23 01:55:00,
2013-02-22 19:10:00,42.5,29.0,30.03,NW,319,4.0,6.0,59,0.00,,,0.00,0,weatherlink.com 1.10,2013-02-23 02:10:00,
2013-02-22 19:25:00,41.9,29.0,30.04,NW,310,2.0,5.0,61,0.00,,,0.00,0,weatherlink.com 1.10,2013-02-23 02:25:00,
2013-02-22 19:40:00,41.6,29.0,30.05,NW,311,3.0,8.0,62,0.00,,,0.00,0,weatherlink.com 1.10,2013-02-23 02:40:00,
2013-02-22 19:55:00,41.1,29.0,30.05,NW,319,3.0,5.0,63,0.00,,,0.00,0,weatherlink.com 1.10,2013-02-23 02:55:00,
2013-02-22 20:10:00,40.6,29.0,30.06,NW,309,1.0,5.0,63,0.00,,,0.00,0,weatherlink.com 1.10,2013-02-23 03:10:00,
2013-02-22 20:25:00,40.2,29.0,30.06,NW,317,2.0,4.0,64,0.00,,,0.00,0,weatherlink.com 1.10,2013-02-23 03:25:00,
2013-02-22 20:40:00,39.9,29.0,30.06,NW,321,0.0,3.0,64,0.00,,,0.00,0,weatherlink.com 1.10,2013-02-23 03:40:00,
2013-02-22 20:55:00,39.6,28.0,30.07,NW,321,0.0,1.0,64,0.00,,,0.00,0,weatherlink.com 1.10,2013-02-23 03:55:00,
2013-02-22 21:10:00,39.2,28.0,30.07,WNW,294,3.0,4.0,65,0.00,,,0.00,0,weatherlink.com 1.10,2013-02-23 04:10:00,
2013-02-22 21:25:00,38.9,28.0,30.07,NW,317,1.0,6.0,65,0.00,,,0.00,0,weatherlink.com 1.10,2013-02-23 04:25:00,
2013-02-22 21:40:00,38.5,28.0,30.07,NW,317,0.0,0.0,66,0.00,,,0.00,0,weatherlink.com 1.10,2013-02-23 04:40:00,
2013-02-22 21:55:00,37.9,28.0,30.07,NW,317,0.0,1.0,67,0.00,,,0.00,0,weatherlink.com 1.10,2013-02-23 04:55:00,
2013-02-22 22:10:00,37.1,27.0,30.08,NW,317,0.0,1.0,68,0.00,,,0.00,0,weatherlink.com 1.10,2013-02-23 05:10:00,
2013-02-22 22:25:00,36.2,27.0,30.09,NW,319,0.0,2.0,69,0.00,,,0.00,0,weatherlink.com 1.10,2013-02-23 05:25:00,
2013-02-22 22:40:00,33.9,26.0,30.09,NNW,336,0.0,1.0,73,0.00,,,0.00,0,weatherlink.com 1.10,2013-02-23 05:40:00,
2013-02-22 22:55:00,32.5,26.0,30.08,NNW,337,0.0,1.0,77,0.00,,,0.00,0,weatherlink.com 1.10,2013-02-23 05:55:00,
2013-02-22 23:11:00,32.7,27.0,30.08,NNW,328,0.0,3.0,78,0.00,,,0.00,0,weatherlink.com 1.10,2013-02-23 06:11:00,
2013-02-22 23:25:00,33.5,27.0,30.08,WNW,303,0.0,3.0,77,0.00,,,0.00,0,weatherlink.com 1.10,2013-02-23 06:25:00,
2013-02-22 23:40:00,33.5,27.0,30.08,WNW,303,0.0,1.0,76,0.00,,,0.00,0,weatherlink.com 1.10,2013-02-23 06:40:00,
2013-02-22 23:55:00,33.0,26.0,30.08,NW,304,0.0,1.0,76,0.00,,,0.00,0,weatherlink.com 1.10,2013-02-23 06:55:00,